Time;durP1;ratioP1;P1;durP2;ratioP2;P2;SDS_P1;SDS_P2;PMS_P1;PMS_P2;Temp;Humidity;BMP_temperature;BMP_pressure;BME280_temperature;BME280_humidity;BME280_pressure;Samples;Min_cycle;Max_cycle;Signal;HPM_P1;HPM_P2
2022/10/26 00:01:35;;;;;;;10.87;6.70;;;10.00;99.90;;;;;;4194484;28;20037;-64
2022/10/26 00:03:38;;;;;;;12.07;7.43;;;10.00;99.90;;;;;;4194870;28;20101;-67
2022/10/26 00:05:39;;;;;;;11.43;7.63;;;10.00;99.90;;;;;;4194529;28;20021;-64
2022/10/26 00:07:40;;;;;;;12.17;7.13;;;10.00;99.90;;;;;;4194569;28;20036;-63
2022/10/26 00:09:41;;;;;;;12.80;7.00;;;9.90;99.90;;;;;;4194034;28;20488;-63
2022/10/26 00:11:42;;;;;;;10.87;7.03;;;9.90;99.90;;;;;;4194096;28;20040;-63
2022/10/26 00:13:45;;;;;;;10.77;6.27;;;9.80;99.90;;;;;;4194463;28;20737;-65
2022/10/26 00:15:46;;;;;;;10.63;7.47;;;9.80;99.90;;;;;;4184002;28;20033;-63
2022/10/26 00:17:47;;;;;;;10.27;6.23;;;9.80;99.90;;;;;;4174147;28;20582;-63
2022/10/26 00:19:48;;;;;;;11.33;6.10;;;9.70;99.90;;;;;;4193594;28;20075;-63
2022/10/26 00:21:50;;;;;;;14.50;7.60;;;9.80;99.90;;;;;;4193661;28;20024;-63
2022/10/26 00:23:51;;;;;;;9.97;4.93;;;9.80;99.90;;;;;;4192228;28;20045;-64
2022/10/26 00:25:56;;;;;;;7.67;4.90;;;9.90;99.90;;;;;;4188562;28;20061;-63
2022/10/26 00:27:57;;;;;;;7.20;5.03;;;9.90;99.90;;;;;;4177503;28;20481;-63
2022/10/26 00:29:58;;;;;;;9.43;5.33;;;10.00;99.90;;;;;;4178222;28;20029;-64
2022/10/26 00:31:59;;;;;;;8.97;5.37;;;10.00;99.90;;;;;;4177616;28;20037;-63
2022/10/26 00:34:00;;;;;;;8.83;5.43;;;10.00;99.90;;;;;;4178679;28;20021;-63
2022/10/26 00:36:02;;;;;;;8.93;5.80;;;10.00;99.90;;;;;;4177184;28;20037;-63
2022/10/26 00:38:03;;;;;;;13.33;8.93;;;10.00;99.90;;;;;;4178509;28;20040;-63
2022/10/26 00:40:04;;;;;;;14.20;9.50;;;9.90;99.90;;;;;;4177797;28;20087;-63
2022/10/26 00:42:05;;;;;;;16.03;10.70;;;9.80;99.90;;;;;;4177989;28;20033;-62
2022/10/26 00:44:40;;;;;;;15.03;10.23;;;9.70;99.90;;;;;;4183338;28;20492;-63
2022/10/26 00:46:42;;;;;;;14.00;9.10;;;9.60;99.90;;;;;;4192911;28;20033;-63
2022/10/26 00:48:51;;;;;;;13.00;9.30;;;9.50;99.90;;;;;;4179558;28;20481;-63
2022/10/26 00:50:54;;;;;;;12.93;8.73;;;9.40;99.90;;;;;;4178038;28;20025;-64
2022/10/26 00:52:57;;;;;;;14.40;9.00;;;9.30;99.90;;;;;;4178243;28;20037;-63
2022/10/26 00:54:59;;;;;;;13.80;8.80;;;9.20;99.90;;;;;;4177470;28;20079;-63
2022/10/26 00:57:00;;;;;;;14.50;8.73;;;9.20;99.90;;;;;;4177947;28;20079;-64
2022/10/26 00:59:05;;;;;;;15.63;9.57;;;9.20;99.90;;;;;;4175676;28;20041;-63
2022/10/26 01:01:06;;;;;;;13.57;9.20;;;9.20;99.90;;;;;;4177796;28;20052;-63
2022/10/26 01:03:09;;;;;;;16.23;10.23;;;9.30;99.90;;;;;;4176504;28;20091;-64
2022/10/26 01:05:11;;;;;;;15.30;9.83;;;9.30;99.90;;;;;;4178328;28;20021;-63
2022/10/26 01:07:13;;;;;;;15.17;10.70;;;9.40;99.90;;;;;;4177653;28;20032;-64
2022/10/26 01:09:15;;;;;;;13.77;10.13;;;9.40;99.90;;;;;;4189191;28;20036;-63
2022/10/26 01:11:17;;;;;;;16.47;10.90;;;9.50;99.90;;;;;;4186300;28;20032;-64
2022/10/26 01:13:19;;;;;;;14.63;9.50;;;9.50;99.90;;;;;;4191406;28;20048;-63
2022/10/26 01:15:23;;;;;;;16.53;10.07;;;9.50;99.90;;;;;;4177492;28;20469;-64
2022/10/26 01:17:44;;;;;;;13.10;9.07;;;9.50;99.90;;;;;;4194842;28;20427;-64
2022/10/26 01:20:29;;;;;;;15.60;9.20;;;9.60;99.90;;;;;;4193573;28;20435;-65
2022/10/26 01:22:48;;;;;;;11.30;8.30;;;9.60;99.90;;;;;;4141494;28;20100;-64
2022/10/26 01:25:11;;;;;;;13.17;8.93;;;9.60;99.90;;;;;;4176984;28;20037;-64
2022/10/26 01:27:28;;;;;;;12.80;8.87;;;9.70;99.90;;;;;;4177852;28;20099;-64
2022/10/26 01:29:50;;;;;;;12.87;8.37;;;9.70;99.90;;;;;;4159417;28;20103;-64
2022/10/26 01:32:02;;;;;;;12.13;7.10;;;9.70;99.90;;;;;;4177591;28;20036;-64
2022/10/26 01:34:18;;;;;;;7.83;6.23;;;9.70;99.90;;;;;;4185669;28;20028;-64
2022/10/26 01:36:49;;;;;;;8.47;5.90;;;9.80;99.90;;;;;;4194042;28;20024;-64
2022/10/26 01:39:16;;;;;;;9.07;5.50;;;9.80;99.90;;;;;;4192942;28;20109;-65
2022/10/26 01:41:26;;;;;;;10.57;5.70;;;9.90;99.90;;;;;;4185595;28;20037;-64
2022/10/26 01:43:32;;;;;;;8.48;5.82;;;9.90;99.90;;;;;;4194667;28;20114;-64
2022/10/26 01:45:36;;;;;;;8.73;5.33;;;10.00;99.90;;;;;;4187234;28;20790;-63
2022/10/26 01:47:39;;;;;;;7.60;5.50;;;10.00;99.90;;;;;;4143618;28;20034;-63
2022/10/26 01:49:51;;;;;;;8.77;5.40;;;10.00;99.90;;;;;;4159793;28;20131;-63
2022/10/26 01:51:52;;;;;;;9.33;6.10;;;10.00;99.90;;;;;;4161649;28;20096;-64
2022/10/26 01:53:53;;;;;;;10.00;7.37;;;10.00;99.90;;;;;;4159656;28;20114;-64
2022/10/26 01:55:56;;;;;;;13.53;8.70;;;10.00;99.90;;;;;;4160085;28;20424;-64
2022/10/26 01:58:09;;;;;;;11.07;9.00;;;9.90;99.90;;;;;;4175392;28;20063;-64
2022/10/26 02:00:11;;;;;;;14.03;10.80;;;9.90;99.90;;;;;;4177504;28;20029;-63
2022/10/26 02:02:21;;;;;;;12.83;9.60;;;9.80;99.90;;;;;;4175915;28;20029;-65
2022/10/26 02:04:34;;;;;;;12.27;9.45;;;9.80;99.90;;;;;;4159357;28;20104;-63
2022/10/26 02:07:14;;;;;;;12.43;9.20;;;9.70;99.90;;;;;;4159928;28;20088;-65
2022/10/26 02:09:36;;;;;;;13.63;8.07;;;9.70;99.90;;;;;;4165480;28;20036;-64
2022/10/26 02:11:45;;;;;;;14.90;8.23;;;9.70;99.90;;;;;;4195236;28;20079;-66
2022/10/26 02:14:00;;;;;;;14.20;7.67;;;9.70;99.90;;;;;;4197499;28;20618;-64
2022/10/26 02:16:13;;;;;;;13.73;7.67;;;9.70;99.90;;;;;;4196170;28;20070;-64
2022/10/26 02:18:42;;;;;;;8.37;6.43;;;9.70;99.90;;;;;;4181308;28;20033;-65
2022/10/26 02:20:48;;;;;;;12.37;7.60;;;9.70;99.90;;;;;;4145142;28;20054;-64
2022/10/26 02:22:51;;;;;;;13.17;6.90;;;9.60;99.90;;;;;;4159017;28;20041;-64
2022/10/26 02:24:55;;;;;;;11.50;6.73;;;9.60;99.90;;;;;;4180385;28;20025;-64
2022/10/26 02:26:57;;;;;;;12.37;8.00;;;9.50;99.90;;;;;;4195537;28;20118;-65
2022/10/26 02:29:02;;;;;;;14.40;8.20;;;9.40;99.90;;;;;;4194602;28;20040;-64
2022/10/26 02:31:05;;;;;;;9.57;6.43;;;9.40;99.90;;;;;;4164156;28;20091;-63
2022/10/26 02:33:09;;;;;;;10.93;7.10;;;9.40;99.90;;;;;;4162812;28;20079;-64
2022/10/26 02:35:13;;;;;;;9.53;6.80;;;9.40;99.90;;;;;;4186133;28;20095;-64
2022/10/26 02:37:18;;;;;;;11.03;6.90;;;9.40;99.90;;;;;;4195520;28;20082;-64
2022/10/26 02:39:20;;;;;;;9.00;6.23;;;9.40;99.90;;;;;;4184101;28;20052;-64
2022/10/26 02:41:24;;;;;;;12.50;7.83;;;9.40;99.90;;;;;;4183339;28;20072;-63
2022/10/26 02:43:27;;;;;;;11.40;7.30;;;9.40;99.90;;;;;;4179565;28;20496;-63
2022/10/26 02:45:35;;;;;;;12.67;7.23;;;9.40;99.90;;;;;;4176432;28;20033;-65
2022/10/26 02:47:37;;;;;;;12.03;6.40;;;9.40;99.90;;;;;;4163317;28;20029;-64
2022/10/26 02:49:38;;;;;;;9.50;6.17;;;9.40;99.90;;;;;;4162917;28;20103;-64
2022/10/26 02:52:17;;;;;;;9.03;5.67;;;9.40;99.90;;;;;;4162984;28;20075;-63
2022/10/26 02:54:31;;;;;;;9.40;6.57;;;9.40;99.90;;;;;;4162315;28;20041;-64
2022/10/26 02:56:53;;;;;;;8.93;5.93;;;9.40;99.90;;;;;;4163470;28;20040;-64
2022/10/26 02:59:00;;;;;;;10.53;6.13;;;9.40;99.90;;;;;;4162029;28;20037;-64
2022/10/26 03:01:02;;;;;;;9.87;6.23;;;9.30;99.90;;;;;;4163250;28;20092;-63
2022/10/26 03:03:03;;;;;;;8.87;5.70;;;9.30;99.90;;;;;;4162499;28;20033;-63
2022/10/26 03:05:26;;;;;;;7.97;6.07;;;9.30;99.90;;;;;;4163274;28;20033;-64
2022/10/26 03:07:27;;;;;;;11.23;6.53;;;9.30;99.90;;;;;;4162449;28;20041;-64
2022/10/26 03:09:28;;;;;;;8.77;6.13;;;9.30;99.90;;;;;;4161984;28;20045;-64
2022/10/26 03:11:29;;;;;;;8.90;6.10;;;9.30;99.90;;;;;;4168075;28;20041;-64
2022/10/26 03:13:30;;;;;;;7.77;5.50;;;9.40;99.90;;;;;;4180123;28;20037;-63
2022/10/26 03:15:31;;;;;;;8.53;5.67;;;9.40;99.90;;;;;;4184051;28;20055;-65
2022/10/26 03:17:33;;;;;;;11.63;6.60;;;9.40;99.90;;;;;;4178044;28;20103;-63
2022/10/26 03:19:34;;;;;;;8.77;5.70;;;9.40;99.90;;;;;;4179520;28;20036;-64
2022/10/26 03:21:35;;;;;;;8.17;5.60;;;9.40;99.90;;;;;;4178630;28;20079;-63
2022/10/26 03:23:36;;;;;;;7.77;5.67;;;9.50;99.90;;;;;;4178301;28;20106;-63
2022/10/26 03:25:37;;;;;;;9.23;5.80;;;9.50;99.90;;;;;;4178803;28;20103;-65
2022/10/26 03:27:38;;;;;;;10.83;6.93;;;9.50;99.90;;;;;;4178454;28;20114;-64
2022/10/26 03:29:39;;;;;;;9.67;6.07;;;9.60;99.90;;;;;;4177593;28;20052;-62
2022/10/26 03:31:40;;;;;;;10.30;5.37;;;9.60;99.90;;;;;;4179257;28;20037;-63
2022/10/26 03:33:41;;;;;;;9.90;5.10;;;9.60;99.90;;;;;;4178184;28;20041;-63
2022/10/26 03:35:42;;;;;;;9.83;5.40;;;9.60;99.90;;;;;;4179093;28;20087;-64
2022/10/26 03:37:44;;;;;;;9.10;5.03;;;9.60;99.90;;;;;;4178747;28;20454;-64
2022/10/26 03:39:45;;;;;;;7.80;5.20;;;9.60;99.90;;;;;;4178837;28;20044;-65
2022/10/26 03:41:46;;;;;;;10.43;5.30;;;9.60;99.90;;;;;;4194502;28;20024;-63
2022/10/26 03:43:48;;;;;;;5.83;4.57;;;9.60;99.90;;;;;;4175853;28;20022;-64
2022/10/26 03:45:49;;;;;;;8.77;5.00;;;9.60;99.90;;;;;;4195293;28;20028;-64
2022/10/26 03:47:50;;;;;;;9.97;5.63;;;9.60;99.90;;;;;;4194078;28;20086;-64
2022/10/26 03:49:51;;;;;;;10.50;4.93;;;9.50;99.90;;;;;;4194849;28;20078;-64
2022/10/26 03:51:52;;;;;;;9.83;5.53;;;9.50;99.90;;;;;;4192745;28;20029;-63
2022/10/26 03:53:53;;;;;;;6.67;5.10;;;9.50;99.90;;;;;;4177195;28;20735;-64
2022/10/26 03:55:54;;;;;;;10.90;5.87;;;9.40;99.90;;;;;;4189541;28;20393;-64
2022/10/26 03:57:55;;;;;;;13.23;7.53;;;9.40;99.90;;;;;;4178365;28;20037;-63
2022/10/26 03:59:56;;;;;;;12.67;7.50;;;9.40;99.90;;;;;;4176683;28;20053;-63
2022/10/26 04:01:57;;;;;;;11.07;7.57;;;9.30;99.90;;;;;;4179921;28;20503;-63
2022/10/26 04:03:58;;;;;;;15.67;9.70;;;9.30;99.90;;;;;;4177426;28;20083;-63
2022/10/26 04:06:01;;;;;;;12.33;9.03;;;9.30;99.90;;;;;;4177803;28;20032;-64
2022/10/26 04:08:02;;;;;;;12.17;8.30;;;9.20;99.90;;;;;;4178183;28;20033;-64
2022/10/26 04:10:05;;;;;;;14.27;7.57;;;9.20;99.90;;;;;;4159690;28;20068;-65
2022/10/26 04:12:06;;;;;;;12.33;7.87;;;9.20;99.90;;;;;;4174465;28;20086;-64
2022/10/26 04:14:07;;;;;;;12.47;8.10;;;9.10;99.90;;;;;;4180923;28;20170;-65
2022/10/26 04:16:08;;;;;;;10.63;7.20;;;9.10;99.90;;;;;;4178110;28;20058;-64
2022/10/26 04:18:11;;;;;;;11.30;7.50;;;9.10;99.90;;;;;;4177555;28;20489;-64
2022/10/26 04:20:13;;;;;;;13.37;7.57;;;9.00;99.90;;;;;;4178109;28;20029;-64
2022/10/26 04:22:14;;;;;;;11.83;7.30;;;9.00;99.90;;;;;;4178509;28;20087;-63
2022/10/26 04:24:15;;;;;;;10.03;6.13;;;9.10;99.90;;;;;;4185887;28;20059;-63
2022/10/26 04:26:16;;;;;;;10.70;6.93;;;9.10;99.90;;;;;;4191327;28;20045;-64
2022/10/26 04:28:17;;;;;;;14.70;7.43;;;9.00;99.90;;;;;;4192437;28;20032;-64
2022/10/26 04:30:19;;;;;;;10.13;6.23;;;9.10;99.90;;;;;;4193633;28;20029;-64
2022/10/26 04:32:20;;;;;;;12.70;6.57;;;9.10;99.90;;;;;;4194790;28;20029;-64
2022/10/26 04:34:21;;;;;;;12.33;6.80;;;9.10;99.90;;;;;;4192193;28;20416;-63
2022/10/26 04:36:23;;;;;;;8.73;5.53;;;9.20;99.90;;;;;;4192012;28;20040;-63
2022/10/26 04:38:24;;;;;;;11.37;5.40;;;9.20;99.90;;;;;;4194391;28;20040;-63
2022/10/26 04:40:26;;;;;;;11.43;5.47;;;9.30;99.90;;;;;;4193643;28;20052;-63
2022/10/26 04:42:28;;;;;;;9.43;5.17;;;9.30;99.90;;;;;;4192754;28;20911;-64
2022/10/26 04:44:29;;;;;;;7.97;5.60;;;9.30;99.90;;;;;;4193450;28;20496;-65
2022/10/26 04:46:30;;;;;;;8.93;5.43;;;9.40;99.90;;;;;;4193441;28;20099;-63
2022/10/26 04:48:31;;;;;;;9.30;4.93;;;9.40;99.90;;;;;;4193718;28;20040;-64
2022/10/26 04:50:33;;;;;;;11.80;5.10;;;9.40;99.90;;;;;;4193739;28;20075;-63
2022/10/26 04:52:34;;;;;;;6.70;4.23;;;9.40;99.90;;;;;;4181499;28;20069;-63
2022/10/26 04:54:35;;;;;;;9.03;4.60;;;9.40;99.90;;;;;;4177981;28;20041;-67
2022/10/26 04:56:36;;;;;;;8.93;5.33;;;9.40;99.90;;;;;;4178532;28;20460;-64
2022/10/26 04:58:38;;;;;;;8.43;5.23;;;9.30;99.90;;;;;;4193327;28;20052;-63
2022/10/26 05:00:39;;;;;;;7.63;4.57;;;9.30;99.90;;;;;;4177888;28;20090;-64
2022/10/26 05:02:40;;;;;;;8.50;4.77;;;9.20;99.90;;;;;;4177917;28;20033;-64
2022/10/26 05:04:41;;;;;;;8.87;5.03;;;9.20;99.90;;;;;;4177050;28;20090;-64
2022/10/26 05:06:42;;;;;;;8.57;5.33;;;9.20;99.90;;;;;;4185596;28;20032;-64
2022/10/26 05:08:43;;;;;;;9.67;4.77;;;9.20;99.90;;;;;;4193580;28;20025;-65
2022/10/26 05:10:49;;;;;;;7.57;5.53;;;9.20;99.90;;;;;;4183239;28;20043;-62
2022/10/26 05:12:54;;;;;;;7.50;4.20;;;9.20;99.90;;;;;;4178558;28;20419;-63
2022/10/26 05:14:57;;;;;;;12.20;4.10;;;9.20;99.90;;;;;;4185092;28;20075;-63
2022/10/26 05:16:58;;;;;;;8.77;4.07;;;9.20;99.90;;;;;;4184992;28;20013;-65
2022/10/26 05:19:00;;;;;;;6.33;4.43;;;9.20;99.90;;;;;;4176727;28;20550;-64
2022/10/26 05:21:01;;;;;;;10.07;4.23;;;9.20;99.90;;;;;;4159233;28;20972;-63
2022/10/26 05:23:09;;;;;;;5.50;3.80;;;9.20;99.90;;;;;;4176759;28;20067;-65
2022/10/26 05:25:10;;;;;;;8.57;4.43;;;9.20;99.90;;;;;;4176948;28;20084;-67
2022/10/26 05:27:11;;;;;;;5.80;4.00;;;9.20;99.90;;;;;;4176825;28;20029;-67
2022/10/26 05:29:12;;;;;;;7.87;4.00;;;9.30;99.90;;;;;;4177032;28;20547;-66
2022/10/26 05:31:13;;;;;;;7.03;3.73;;;9.20;99.90;;;;;;4176517;28;20047;-68
2022/10/26 05:33:15;;;;;;;5.17;3.80;;;9.20;99.90;;;;;;4177511;28;20025;-67
2022/10/26 05:35:16;;;;;;;7.67;4.47;;;9.20;99.90;;;;;;4175518;28;20090;-67
2022/10/26 05:37:17;;;;;;;6.47;3.93;;;9.20;99.90;;;;;;4172190;28;20084;-63
2022/10/26 05:39:18;;;;;;;7.37;3.60;;;9.10;99.90;;;;;;4176060;28;20060;-63
2022/10/26 05:41:19;;;;;;;7.50;4.60;;;9.10;99.90;;;;;;4176588;28;20497;-63
2022/10/26 05:43:22;;;;;;;7.77;4.30;;;9.20;99.90;;;;;;4175753;28;20111;-61
2022/10/26 05:45:23;;;;;;;12.23;5.10;;;9.20;99.90;;;;;;4177960;28;20087;-62
2022/10/26 05:47:24;;;;;;;9.67;4.10;;;9.30;99.90;;;;;;4179502;28;20083;-61
2022/10/26 05:49:26;;;;;;;9.40;4.30;;;9.30;99.90;;;;;;4180293;28;20033;-62
2022/10/26 05:51:27;;;;;;;11.67;4.80;;;9.40;99.90;;;;;;4179910;28;20071;-64
2022/10/26 05:53:28;;;;;;;11.23;6.50;;;9.40;99.90;;;;;;4167771;28;20037;-63
2022/10/26 05:55:30;;;;;;;10.70;4.63;;;9.50;99.90;;;;;;4180191;28;20439;-64
2022/10/26 05:57:31;;;;;;;7.57;4.40;;;9.60;99.90;;;;;;4179392;28;20082;-62
2022/10/26 05:59:32;;;;;;;5.77;4.30;;;9.60;99.90;;;;;;4179591;28;20083;-64
2022/10/26 06:02:01;;;;;;;11.17;5.20;;;9.60;99.90;;;;;;4179004;28;20037;-62
2022/10/26 06:04:29;;;;;;;5.20;3.53;;;9.60;99.90;;;;;;4180041;28;20091;-64
2022/10/26 06:06:42;;;;;;;7.33;3.60;;;9.70;99.90;;;;;;4180120;28;20087;-64
2022/10/26 06:08:44;;;;;;;6.57;3.60;;;9.70;99.90;;;;;;4179998;28;20420;-65
2022/10/26 06:10:46;;;;;;;13.03;5.27;;;9.70;99.90;;;;;;4178698;28;20041;-64
2022/10/26 06:12:47;;;;;;;20.53;8.87;;;9.60;99.90;;;;;;4180161;28;20412;-65
2022/10/26 06:14:49;;;;;;;9.37;4.80;;;9.70;99.90;;;;;;4178550;28;20071;-62
2022/10/26 06:17:05;;;;;;;9.83;4.10;;;9.70;99.90;;;;;;4183094;28;20021;-65
2022/10/26 06:19:33;;;;;;;8.33;4.97;;;9.80;99.90;;;;;;4180291;28;20095;-64
2022/10/26 06:21:40;;;;;;;11.60;4.57;;;9.70;99.90;;;;;;4170158;28;20044;-66
2022/10/26 06:24:00;;;;;;;9.50;4.03;;;9.70;99.90;;;;;;4179477;28;20497;-68
2022/10/26 06:26:22;;;;;;;11.43;4.55;;;9.80;99.90;;;;;;4179338;28;20460;-66
2022/10/26 06:28:39;;;;;;;8.53;4.17;;;9.90;99.90;;;;;;4179399;28;20436;-62
2022/10/26 06:30:41;;;;;;;10.33;4.70;;;10.30;99.90;;;;;;4178324;28;20037;-63
2022/10/26 06:32:45;;;;;;;10.27;4.23;;;10.60;99.90;;;;;;4178682;28;20040;-64
2022/10/26 06:34:49;;;;;;;10.77;4.20;;;11.00;99.90;;;;;;4179164;28;20033;-65
2022/10/26 06:36:51;;;;;;;9.03;4.47;;;11.00;99.90;;;;;;4178483;28;20086;-64
2022/10/26 06:39:01;;;;;;;9.40;4.17;;;11.10;99.90;;;;;;4163163;28;20080;-63
2022/10/26 06:41:03;;;;;;;11.00;3.55;;;11.50;99.90;;;;;;4162338;28;20045;-66
2022/10/26 06:43:13;;;;;;;11.50;4.33;;;12.00;99.90;;;;;;4163124;28;20021;-63
2022/10/26 06:45:16;;;;;;;9.18;3.97;;;12.50;99.90;;;;;;4162896;28;20041;-62
2022/10/26 06:47:32;;;;;;;7.10;4.03;;;12.80;99.90;;;;;;4178372;28;20037;-63
2022/10/26 06:49:43;;;;;;;6.97;3.60;;;13.20;99.90;;;;;;4178435;28;20094;-62
2022/10/26 06:52:06;;;;;;;8.82;3.78;;;13.70;99.90;;;;;;4179767;28;20390;-64
2022/10/26 06:54:48;;;;;;;10.10;3.90;;;13.80;99.90;;;;;;4179353;28;20090;-63
2022/10/26 06:56:51;;;;;;;8.23;3.80;;;13.80;99.90;;;;;;4183766;28;20052;-62
2022/10/26 06:58:54;;;;;;;6.77;3.07;;;13.70;99.90;;;;;;4195944;28;20082;-64
2022/10/26 07:00:56;;;;;;;6.70;3.10;;;13.70;99.90;;;;;;4194828;28;20090;-60
2022/10/26 07:02:58;;;;;;;9.03;3.50;;;13.60;99.90;;;;;;4177264;28;20072;-63
2022/10/26 07:04:59;;;;;;;6.33;3.93;;;13.50;99.90;;;;;;4195710;28;20067;-63
2022/10/26 07:07:01;;;;;;;8.63;4.03;;;13.70;99.90;;;;;;4195860;28;20089;-61
2022/10/26 07:09:02;;;;;;;8.03;3.80;;;13.80;99.90;;;;;;4196406;28;20086;-61
2022/10/26 07:11:04;;;;;;;9.80;3.70;;;13.70;99.90;;;;;;4194826;28;20845;-62
2022/10/26 07:13:06;;;;;;;7.03;4.30;;;13.60;99.90;;;;;;4193734;28;20044;-62
2022/10/26 07:15:07;;;;;;;11.07;4.50;;;13.70;99.90;;;;;;4194630;28;20036;-62
2022/10/26 07:17:09;;;;;;;10.90;4.50;;;14.10;99.90;;;;;;4193495;28;20434;-62
2022/10/26 07:19:10;;;;;;;7.77;4.20;;;14.40;99.90;;;;;;4178475;28;20443;-63
2022/10/26 07:21:11;;;;;;;7.90;3.65;;;14.70;99.90;;;;;;4179479;28;20098;-62
2022/10/26 07:23:14;;;;;;;8.90;3.88;;;15.10;99.90;;;;;;4179133;28;20033;-63
2022/10/26 07:25:15;;;;;;;14.20;4.53;;;15.40;99.90;;;;;;4193211;28;20103;-63
2022/10/26 07:27:20;;;;;;;14.10;4.20;;;15.60;99.90;;;;;;4194698;28;20032;-64
2022/10/26 07:29:23;;;;;;;11.60;5.30;;;15.80;99.90;;;;;;4189377;28;20048;-62
2022/10/26 07:31:25;;;;;;;16.20;4.82;;;16.10;99.90;;;;;;4177498;28;20123;-62
2022/10/26 07:33:26;;;;;;;11.13;5.18;;;16.00;99.90;;;;;;4183994;28;20040;-65
2022/10/26 07:35:27;;;;;;;13.52;5.70;;;15.90;99.90;;;;;;4188132;28;20455;-65
2022/10/26 07:37:28;;;;;;;29.95;13.10;;;15.90;99.90;;;;;;4160338;28;20037;-64
2022/10/26 07:39:31;;;;;;;21.70;7.63;;;16.00;99.90;;;;;;4177954;28;20432;-64
2022/10/26 07:41:33;;;;;;;9.23;4.93;;;16.30;99.90;;;;;;4189552;28;20094;-63
2022/10/26 07:43:34;;;;;;;21.30;6.28;;;16.50;99.90;;;;;;4195373;28;20028;-64
2022/10/26 07:45:35;;;;;;;15.65;5.15;;;16.80;99.90;;;;;;4193536;28;20120;-62
2022/10/26 07:47:36;;;;;;;12.02;4.65;;;17.40;99.90;;;;;;4188824;28;20078;-64
2022/10/26 07:49:38;;;;;;;10.00;5.07;;;17.70;99.90;;;;;;4193627;28;20495;-67
2022/10/26 07:51:39;;;;;;;15.48;4.90;;;17.60;99.90;;;;;;4194356;28;20097;-64
2022/10/26 07:53:41;;;;;;;8.35;4.38;;;17.60;99.90;;;;;;4168880;28;20178;-66
2022/10/26 07:55:42;;;;;;;12.23;4.53;;;17.70;99.90;;;;;;4178521;28;20078;-72
2022/10/26 07:57:43;;;;;;;15.40;5.88;;;18.00;99.90;;;;;;4177104;28;20102;-66
2022/10/26 07:59:44;;;;;;;9.23;3.85;;;18.30;99.90;;;;;;4178610;28;20033;-67
2022/10/26 08:01:45;;;;;;;11.95;4.80;;;18.50;99.90;;;;;;4177795;28;20151;-64
2022/10/26 08:03:46;;;;;;;13.90;4.75;;;18.60;99.90;;;;;;4178428;28;20041;-65
2022/10/26 08:05:54;;;;;;;6.60;4.78;;;18.60;99.90;;;;;;4189627;28;20036;-64
2022/10/26 08:07:55;;;;;;;9.60;4.07;;;18.90;99.90;;;;;;4195194;28;20427;-65
2022/10/26 08:09:56;;;;;;;10.70;4.15;;;18.90;99.90;;;;;;4186347;28;20063;-67
2022/10/26 08:11:58;;;;;;;5.25;3.67;;;18.80;99.90;;;;;;4178102;28;20485;-69
2022/10/26 08:13:59;;;;;;;11.27;4.18;;;18.80;99.90;;;;;;4177571;28;20090;-67
2022/10/26 08:16:03;;;;;;;8.88;4.15;;;18.60;99.90;;;;;;4176671;28;20091;-67
2022/10/26 08:18:04;;;;;;;8.75;4.28;;;18.60;99.90;;;;;;4177176;28;20032;-65
2022/10/26 08:20:06;;;;;;;12.02;4.25;;;18.50;99.90;;;;;;4175720;28;20048;-66
2022/10/26 08:22:07;;;;;;;7.35;3.40;;;18.60;99.90;;;;;;4187828;28;20549;-67
2022/10/26 08:24:08;;;;;;;5.88;3.78;;;18.80;99.90;;;;;;4186056;28;20086;-67
2022/10/26 08:26:10;;;;;;;4.75;2.92;;;19.00;99.90;;;;;;4177558;28;20045;-68
2022/10/26 08:28:11;;;;;;;8.40;4.13;;;19.20;99.90;;;;;;4159141;28;20072;-69
2022/10/26 08:30:13;;;;;;;7.35;4.05;;;19.30;99.90;;;;;;4178053;28;20045;-67
2022/10/26 08:32:14;;;;;;;10.00;4.47;;;18.90;99.90;;;;;;4177140;28;20029;-69
2022/10/26 08:34:15;;;;;;;9.35;4.00;;;19.00;99.90;;;;;;4178571;28;20488;-66
2022/10/26 08:36:22;;;;;;;21.02;10.02;;;19.00;99.90;;;;;;4158300;28;20026;-65
2022/10/26 08:38:23;;;;;;;7.65;4.47;;;19.20;99.90;;;;;;4178104;28;20029;-64
2022/10/26 08:40:29;;;;;;;37.30;17.52;;;19.20;99.90;;;;;;4176783;28;20025;-65
2022/10/26 08:42:41;;;;;;;14.02;8.85;;;19.30;99.90;;;;;;4177569;28;20059;-65
2022/10/26 08:44:47;;;;;;;36.50;19.33;;;19.80;99.90;;;;;;4177014;28;20029;-67
2022/10/26 08:46:54;;;;;;;17.48;9.02;;;20.00;99.90;;;;;;4190522;28;20060;-66
2022/10/26 08:49:01;;;;;;;9.35;4.47;;;20.10;99.90;;;;;;4193779;28;20082;-64
2022/10/26 08:51:09;;;;;;;5.75;3.53;;;20.20;99.90;;;;;;4193950;28;20033;-63
2022/10/26 08:53:28;;;;;;;4.57;3.83;;;20.30;99.90;;;;;;4192711;28;20033;-64
2022/10/26 08:56:02;;;;;;;21.00;10.07;;;20.40;99.90;;;;;;4192738;28;20044;-65
2022/10/26 08:58:07;;;;;;;14.77;5.70;;;20.40;99.90;;;;;;4160278;28;20046;-67
2022/10/26 09:00:17;;;;;;;7.47;4.70;;;20.50;99.90;;;;;;4173315;28;20024;-66
2022/10/26 09:02:20;;;;;;;10.70;4.32;;;20.30;99.90;;;;;;4176801;28;20045;-65
2022/10/26 09:04:29;;;;;;;10.48;4.43;;;20.10;99.90;;;;;;4179768;28;20037;-66
2022/10/26 09:07:07;;;;;;;7.05;4.70;;;20.20;99.90;;;;;;4180933;28;20561;-65
2022/10/26 09:09:27;;;;;;;9.77;5.25;;;19.80;99.90;;;;;;4190603;28;20036;-66
2022/10/26 09:11:53;;;;;;;15.07;5.60;;;19.30;99.90;;;;;;4188909;28;20025;-64
2022/10/26 09:14:18;;;;;;;10.38;7.00;;;19.00;99.90;;;;;;4159817;28;20456;-67
2022/10/26 09:16:34;;;;;;;14.27;6.18;;;18.30;99.90;;;;;;4176247;28;20048;-65
2022/10/26 09:19:08;;;;;;;10.68;6.78;;;17.90;99.90;;;;;;4159019;28;20092;-64
2022/10/26 09:21:25;;;;;;;9.70;6.55;;;17.80;99.90;;;;;;4178860;28;20060;-68
2022/10/26 09:23:52;;;;;;;10.98;5.22;;;18.00;99.90;;;;;;4180225;28;20017;-64
2022/10/26 09:26:01;;;;;;;15.57;6.65;;;18.20;99.90;;;;;;4164303;28;20040;-62
2022/10/26 09:28:03;;;;;;;8.57;5.05;;;18.10;99.90;;;;;;4170662;28;20041;-63
2022/10/26 09:30:13;;;;;;;10.88;6.07;;;18.00;99.90;;;;;;4179851;28;20094;-63
2022/10/26 09:32:24;;;;;;;12.15;5.90;;;17.90;99.90;;;;;;4180209;28;20417;-64
2022/10/26 09:34:28;;;;;;;9.52;6.03;;;17.90;99.90;;;;;;4181531;28;20098;-63
2022/10/26 09:36:29;;;;;;;8.77;5.63;;;17.80;99.90;;;;;;4180137;28;20107;-64
2022/10/26 09:38:35;;;;;;;8.35;5.35;;;17.70;99.90;;;;;;4180551;28;20029;-63
2022/10/26 09:40:58;;;;;;;18.88;7.10;;;17.60;99.90;;;;;;4180090;28;20029;-65
2022/10/26 09:43:05;;;;;;;10.68;5.88;;;17.60;99.90;;;;;;4180312;28;20546;-65
2022/10/26 09:45:29;;;;;;;8.38;5.22;;;17.40;99.90;;;;;;4177566;28;20036;-62
2022/10/26 09:47:36;;;;;;;9.07;5.78;;;17.60;99.90;;;;;;4163369;28;20037;-62
2022/10/26 09:49:52;;;;;;;9.15;5.55;;;17.60;99.90;;;;;;4178500;28;20037;-64
2022/10/26 09:51:53;;;;;;;8.40;5.65;;;17.50;99.90;;;;;;4196979;28;20017;-64
2022/10/26 09:53:56;;;;;;;8.00;5.95;;;17.50;99.90;;;;;;4195879;28;20036;-64
2022/10/26 09:56:08;;;;;;;9.18;5.53;;;17.50;99.90;;;;;;4178815;28;20033;-65
2022/10/26 09:58:26;;;;;;;8.85;5.53;;;17.30;99.90;;;;;;4179799;28;20075;-64
2022/10/26 10:00:28;;;;;;;9.05;4.97;;;17.20;99.90;;;;;;4181258;28;20032;-65
2022/10/26 10:02:38;;;;;;;8.73;5.72;;;17.10;99.90;;;;;;4190049;28;20479;-65
2022/10/26 10:04:45;;;;;;;7.28;5.35;;;17.10;99.90;;;;;;4186491;28;20447;-64
2022/10/26 10:06:51;;;;;;;8.02;5.22;;;17.10;99.90;;;;;;4178635;28;20091;-63
2022/10/26 10:09:14;;;;;;;7.78;4.85;;;17.20;99.90;;;;;;4180183;28;20032;-65
2022/10/26 10:11:15;;;;;;;7.70;4.95;;;17.30;99.90;;;;;;4178928;28;20504;-70
2022/10/26 10:13:19;;;;;;;9.02;4.90;;;17.30;99.90;;;;;;4161414;28;20033;-66
2022/10/26 10:15:23;;;;;;;7.45;5.30;;;17.50;99.90;;;;;;4179299;28;20865;-66
2022/10/26 10:17:25;;;;;;;6.63;4.97;;;17.50;99.90;;;;;;4178485;28;20079;-66
2022/10/26 10:19:31;;;;;;;4.88;4.35;;;17.50;99.90;;;;;;4186134;28;20500;-66
2022/10/26 10:21:36;;;;;;;5.95;4.22;;;17.40;99.90;;;;;;4182132;28;20056;-64
2022/10/26 10:23:51;;;;;;;7.82;4.95;;;17.70;99.90;;;;;;4179765;28;20049;-65
2022/10/26 10:26:07;;;;;;;8.10;4.18;;;17.80;99.90;;;;;;4178685;28;20057;-64
2022/10/26 10:28:23;;;;;;;6.70;4.80;;;17.70;99.90;;;;;;4187570;28;20040;-68
2022/10/26 10:30:32;;;;;;;9.02;5.22;;;17.60;99.90;;;;;;4192103;28;20094;-65
2022/10/26 10:32:33;;;;;;;11.98;5.80;;;17.40;99.90;;;;;;4180676;28;20943;-65
2022/10/26 10:34:34;;;;;;;9.25;4.70;;;17.30;99.90;;;;;;4189363;28;20044;-63
2022/10/26 10:36:36;;;;;;;6.30;4.40;;;17.30;99.90;;;;;;4179905;28;20423;-63
2022/10/26 10:38:40;;;;;;;4.65;4.13;;;17.30;99.90;;;;;;4179137;28;20040;-62
2022/10/26 10:40:50;;;;;;;5.82;4.32;;;17.30;99.90;;;;;;4179908;28;20033;-65
2022/10/26 10:43:01;;;;;;;7.90;4.43;;;17.20;99.90;;;;;;4178834;28;20427;-65
2022/10/26 10:45:04;;;;;;;6.32;4.22;;;17.10;99.90;;;;;;4163092;28;20486;-64
2022/10/26 10:47:06;;;;;;;7.40;4.32;;;17.10;99.90;;;;;;4173642;28;20027;-65
2022/10/26 10:49:26;;;;;;;7.63;4.60;;;17.20;99.90;;;;;;4179361;28;20094;-63
2022/10/26 10:51:29;;;;;;;4.20;3.80;;;17.40;99.90;;;;;;4177580;28;20037;-64
2022/10/26 10:53:43;;;;;;;8.00;4.07;;;17.30;99.90;;;;;;4179327;28;20086;-66
2022/10/26 10:56:00;;;;;;;5.70;2.63;;;17.40;99.90;;;;;;4172924;28;20078;-62
2022/10/26 10:58:26;;;;;;;4.78;2.90;;;17.40;99.90;;;;;;4161671;28;20107;-67